sensor_id;sensor_type;location;lat;lon;timestamp;P1;durP1;ratioP1;P2;durP2;ratioP2
177;SDS011;77;48.792;9.032;2023-04-25T00:01:20;5.30;;;2.80;;
177;SDS011;77;48.792;9.032;2023-04-25T00:03:47;4.27;;;2.50;;
177;SDS011;77;48.792;9.032;2023-04-25T00:06:12;4.63;;;2.70;;
177;SDS011;77;48.792;9.032;2023-04-25T00:08:37;4.80;;;2.70;;
177;SDS011;77;48.792;9.032;2023-04-25T00:11:03;5.00;;;2.93;;
177;SDS011;77;48.792;9.032;2023-04-25T00:13:28;6.20;;;2.90;;
177;SDS011;77;48.792;9.032;2023-04-25T00:15:53;6.73;;;3.20;;
177;SDS011;77;48.792;9.032;2023-04-25T00:18:18;5.03;;;3.17;;
177;SDS011;77;48.792;9.032;2023-04-25T00:20:45;6.13;;;3.30;;
177;SDS011;77;48.792;9.032;2023-04-25T00:23:10;5.40;;;3.03;;
177;SDS011;77;48.792;9.032;2023-04-25T00:25:35;5.57;;;3.20;;
177;SDS011;77;48.792;9.032;2023-04-25T00:28:00;4.60;;;2.87;;
177;SDS011;77;48.792;9.032;2023-04-25T00:30:26;6.20;;;3.33;;
177;SDS011;77;48.792;9.032;2023-04-25T00:32:51;5.10;;;3.30;;
177;SDS011;77;48.792;9.032;2023-04-25T00:35:16;5.70;;;3.53;;
177;SDS011;77;48.792;9.032;2023-04-25T00:37:43;6.57;;;3.70;;
177;SDS011;77;48.792;9.032;2023-04-25T00:40:08;5.60;;;3.33;;
177;SDS011;77;48.792;9.032;2023-04-25T00:42:34;7.00;;;3.63;;
177;SDS011;77;48.792;9.032;2023-04-25T00:45:00;5.60;;;3.40;;
177;SDS011;77;48.792;9.032;2023-04-25T00:47:25;6.70;;;3.97;;
177;SDS011;77;48.792;9.032;2023-04-25T00:49:51;6.03;;;3.40;;
177;SDS011;77;48.792;9.032;2023-04-25T00:52:16;6.47;;;3.53;;
177;SDS011;77;48.792;9.032;2023-04-25T00:54:42;6.40;;;3.67;;
177;SDS011;77;48.792;9.032;2023-04-25T00:57:08;8.30;;;3.50;;
177;SDS011;77;48.792;9.032;2023-04-25T00:59:33;6.03;;;3.50;;
177;SDS011;77;48.792;9.032;2023-04-25T01:01:58;7.47;;;3.97;;
177;SDS011;77;48.792;9.032;2023-04-25T01:04:23;6.27;;;3.67;;
177;SDS011;77;48.792;9.032;2023-04-25T01:06:49;5.90;;;3.57;;
177;SDS011;77;48.792;9.032;2023-04-25T01:09:14;5.30;;;3.50;;
177;SDS011;77;48.792;9.032;2023-04-25T01:11:41;5.73;;;3.77;;
177;SDS011;77;48.792;9.032;2023-04-25T01:14:06;7.23;;;3.70;;
177;SDS011;77;48.792;9.032;2023-04-25T01:16:31;8.33;;;4.43;;
177;SDS011;77;48.792;9.032;2023-04-25T01:18:56;6.97;;;4.23;;
177;SDS011;77;48.792;9.032;2023-04-25T01:21:23;6.07;;;3.70;;
177;SDS011;77;48.792;9.032;2023-04-25T01:23:48;7.87;;;4.30;;
177;SDS011;77;48.792;9.032;2023-04-25T01:26:14;10.67;;;3.90;;
177;SDS011;77;48.792;9.032;2023-04-25T01:28:40;6.20;;;3.73;;
177;SDS011;77;48.792;9.032;2023-04-25T01:31:05;7.97;;;4.00;;
177;SDS011;77;48.792;9.032;2023-04-25T01:33:30;7.20;;;3.90;;
177;SDS011;77;48.792;9.032;2023-04-25T01:35:56;8.40;;;4.03;;
177;SDS011;77;48.792;9.032;2023-04-25T01:38:22;7.37;;;4.30;;
177;SDS011;77;48.792;9.032;2023-04-25T01:40:48;10.87;;;4.00;;
177;SDS011;77;48.792;9.032;2023-04-25T01:43:14;8.37;;;4.10;;
177;SDS011;77;48.792;9.032;2023-04-25T01:45:39;6.77;;;4.10;;
177;SDS011;77;48.792;9.032;2023-04-25T01:48:04;6.40;;;3.70;;
177;SDS011;77;48.792;9.032;2023-04-25T01:50:29;6.13;;;3.70;;
177;SDS011;77;48.792;9.032;2023-04-25T01:52:55;6.67;;;3.63;;
177;SDS011;77;48.792;9.032;2023-04-25T01:55:21;7.20;;;4.17;;
177;SDS011;77;48.792;9.032;2023-04-25T01:57:47;6.80;;;4.30;;
177;SDS011;77;48.792;9.032;2023-04-25T02:00:12;7.20;;;4.30;;
177;SDS011;77;48.792;9.032;2023-04-25T02:02:37;6.27;;;3.87;;
177;SDS011;77;48.792;9.032;2023-04-25T02:05:03;9.67;;;4.60;;
177;SDS011;77;48.792;9.032;2023-04-25T02:07:28;6.67;;;4.20;;
177;SDS011;77;48.792;9.032;2023-04-25T02:09:53;6.80;;;4.03;;
177;SDS011;77;48.792;9.032;2023-04-25T02:12:20;6.90;;;4.00;;
177;SDS011;77;48.792;9.032;2023-04-25T02:14:45;8.53;;;4.67;;
177;SDS011;77;48.792;9.032;2023-04-25T02:17:10;9.00;;;5.20;;
177;SDS011;77;48.792;9.032;2023-04-25T02:19:35;9.30;;;4.70;;
177;SDS011;77;48.792;9.032;2023-04-25T02:22:01;8.30;;;4.67;;
177;SDS011;77;48.792;9.032;2023-04-25T02:24:26;7.33;;;4.40;;
177;SDS011;77;48.792;9.032;2023-04-25T02:26:51;6.43;;;4.20;;
177;SDS011;77;48.792;9.032;2023-04-25T02:29:18;6.70;;;3.90;;
177;SDS011;77;48.792;9.032;2023-04-25T02:31:43;8.90;;;4.10;;
177;SDS011;77;48.792;9.032;2023-04-25T02:34:08;6.77;;;4.30;;
177;SDS011;77;48.792;9.032;2023-04-25T02:36:33;7.00;;;4.17;;
177;SDS011;77;48.792;9.032;2023-04-25T02:38:58;7.80;;;4.20;;
177;SDS011;77;48.792;9.032;2023-04-25T02:41:24;6.53;;;3.90;;
177;SDS011;77;48.792;9.032;2023-04-25T02:43:49;8.50;;;4.30;;
177;SDS011;77;48.792;9.032;2023-04-25T02:46:15;6.87;;;4.13;;
177;SDS011;77;48.792;9.032;2023-04-25T02:48:40;6.00;;;3.97;;
177;SDS011;77;48.792;9.032;2023-04-25T02:51:06;8.30;;;4.13;;
177;SDS011;77;48.792;9.032;2023-04-25T02:53:31;5.77;;;3.73;;
177;SDS011;77;48.792;9.032;2023-04-25T02:55:56;7.00;;;3.97;;
177;SDS011;77;48.792;9.032;2023-04-25T02:58:21;7.43;;;4.40;;
177;SDS011;77;48.792;9.032;2023-04-25T03:00:46;6.83;;;3.93;;
177;SDS011;77;48.792;9.032;2023-04-25T03:03:13;8.07;;;4.20;;
177;SDS011;77;48.792;9.032;2023-04-25T03:05:38;9.70;;;4.47;;
177;SDS011;77;48.792;9.032;2023-04-25T03:08:03;8.57;;;3.97;;
177;SDS011;77;48.792;9.032;2023-04-25T03:10:29;8.17;;;4.13;;
177;SDS011;77;48.792;9.032;2023-04-25T03:12:54;7.40;;;4.00;;
177;SDS011;77;48.792;9.032;2023-04-25T03:15:19;11.10;;;4.20;;
177;SDS011;77;48.792;9.032;2023-04-25T03:17:44;10.50;;;4.20;;
177;SDS011;77;48.792;9.032;2023-04-25T03:20:11;8.27;;;4.47;;
177;SDS011;77;48.792;9.032;2023-04-25T03:22:36;7.90;;;4.30;;
177;SDS011;77;48.792;9.032;2023-04-25T03:25:02;6.30;;;4.00;;
177;SDS011;77;48.792;9.032;2023-04-25T03:27:27;6.73;;;3.90;;
177;SDS011;77;48.792;9.032;2023-04-25T03:29:52;7.47;;;4.13;;
177;SDS011;77;48.792;9.032;2023-04-25T03:32:17;6.30;;;3.90;;
177;SDS011;77;48.792;9.032;2023-04-25T03:34:42;6.60;;;3.83;;
177;SDS011;77;48.792;9.032;2023-04-25T03:37:09;6.47;;;3.87;;
177;SDS011;77;48.792;9.032;2023-04-25T03:39:34;8.83;;;3.97;;
177;SDS011;77;48.792;9.032;2023-04-25T03:41:59;9.27;;;4.40;;
177;SDS011;77;48.792;9.032;2023-04-25T03:44:24;6.53;;;3.80;;
177;SDS011;77;48.792;9.032;2023-04-25T03:46:49;5.97;;;3.93;;
177;SDS011;77;48.792;9.032;2023-04-25T03:49:15;7.53;;;4.30;;
177;SDS011;77;48.792;9.032;2023-04-25T03:51:40;7.70;;;4.60;;
177;SDS011;77;48.792;9.032;2023-04-25T03:54:06;6.80;;;4.63;;
177;SDS011;77;48.792;9.032;2023-04-25T03:56:31;7.37;;;4.27;;
177;SDS011;77;48.792;9.032;2023-04-25T03:58:57;9.17;;;4.80;;
177;SDS011;77;48.792;9.032;2023-04-25T04:01:22;10.13;;;4.57;;
177;SDS011;77;48.792;9.032;2023-04-25T04:03:47;8.80;;;5.10;;
177;SDS011;77;48.792;9.032;2023-04-25T04:06:12;7.30;;;4.50;;
177;SDS011;77;48.792;9.032;2023-04-25T04:08:37;11.43;;;5.03;;
177;SDS011;77;48.792;9.032;2023-04-25T04:11:04;7.87;;;4.53;;
177;SDS011;77;48.792;9.032;2023-04-25T04:13:29;9.90;;;5.33;;
177;SDS011;77;48.792;9.032;2023-04-25T04:15:54;7.87;;;5.13;;
177;SDS011;77;48.792;9.032;2023-04-25T04:18:19;8.73;;;5.17;;
177;SDS011;77;48.792;9.032;2023-04-25T04:20:44;10.80;;;5.83;;
177;SDS011;77;48.792;9.032;2023-04-25T04:23:10;10.63;;;5.20;;
177;SDS011;77;48.792;9.032;2023-04-25T04:25:35;9.60;;;5.60;;
177;SDS011;77;48.792;9.032;2023-04-25T04:28:02;11.63;;;5.70;;
177;SDS011;77;48.792;9.032;2023-04-25T04:30:27;9.43;;;5.23;;
177;SDS011;77;48.792;9.032;2023-04-25T04:32:52;10.10;;;5.37;;
177;SDS011;77;48.792;9.032;2023-04-25T04:35:17;9.30;;;5.10;;
177;SDS011;77;48.792;9.032;2023-04-25T04:37:42;7.90;;;4.97;;
177;SDS011;77;48.792;9.032;2023-04-25T04:40:08;10.43;;;5.27;;
177;SDS011;77;48.792;9.032;2023-04-25T04:42:33;10.03;;;5.27;;
177;SDS011;77;48.792;9.032;2023-04-25T04:45:00;9.57;;;5.20;;
177;SDS011;77;48.792;9.032;2023-04-25T04:47:25;9.10;;;4.50;;
177;SDS011;77;48.792;9.032;2023-04-25T04:49:50;8.50;;;4.90;;
177;SDS011;77;48.792;9.032;2023-04-25T04:52:15;9.70;;;5.07;;
177;SDS011;77;48.792;9.032;2023-04-25T04:54:40;6.87;;;4.50;;
177;SDS011;77;48.792;9.032;2023-04-25T04:57:05;7.23;;;4.73;;
177;SDS011;77;48.792;9.032;2023-04-25T04:59:31;8.47;;;4.53;;
177;SDS011;77;48.792;9.032;2023-04-25T05:01:57;9.13;;;4.83;;
177;SDS011;77;48.792;9.032;2023-04-25T05:04:22;8.60;;;5.10;;
177;SDS011;77;48.792;9.032;2023-04-25T05:06:47;7.73;;;4.83;;
177;SDS011;77;48.792;9.032;2023-04-25T05:09:13;10.10;;;5.63;;
177;SDS011;77;48.792;9.032;2023-04-25T05:11:38;9.40;;;5.53;;
177;SDS011;77;48.792;9.032;2023-04-25T05:14:03;11.53;;;5.93;;
177;SDS011;77;48.792;9.032;2023-04-25T05:16:28;8.93;;;5.03;;
177;SDS011;77;48.792;9.032;2023-04-25T05:18:55;10.77;;;5.50;;
177;SDS011;77;48.792;9.032;2023-04-25T05:21:20;9.97;;;5.67;;
177;SDS011;77;48.792;9.032;2023-04-25T05:23:45;8.30;;;5.10;;
177;SDS011;77;48.792;9.032;2023-04-25T05:26:10;8.50;;;5.63;;
177;SDS011;77;48.792;9.032;2023-04-25T05:28:35;8.93;;;5.40;;
177;SDS011;77;48.792;9.032;2023-04-25T05:31:01;8.73;;;5.30;;
177;SDS011;77;48.792;9.032;2023-04-25T05:33:26;8.20;;;5.20;;
177;SDS011;77;48.792;9.032;2023-04-25T05:35:53;10.80;;;6.00;;
177;SDS011;77;48.792;9.032;2023-04-25T05:38:18;7.93;;;4.97;;
177;SDS011;77;48.792;9.032;2023-04-25T05:40:43;8.87;;;5.43;;
177;SDS011;77;48.792;9.032;2023-04-25T05:43:08;9.63;;;5.10;;
177;SDS011;77;48.792;9.032;2023-04-25T05:45:34;7.47;;;4.30;;
177;SDS011;77;48.792;9.032;2023-04-25T05:47:59;8.47;;;4.60;;
177;SDS011;77;48.792;9.032;2023-04-25T05:50:24;9.53;;;5.07;;
177;SDS011;77;48.792;9.032;2023-04-25T05:52:51;8.60;;;5.40;;
177;SDS011;77;48.792;9.032;2023-04-25T05:55:16;8.60;;;5.03;;
177;SDS011;77;48.792;9.032;2023-04-25T05:57:41;7.93;;;4.90;;
177;SDS011;77;48.792;9.032;2023-04-25T06:00:07;11.10;;;5.33;;
177;SDS011;77;48.792;9.032;2023-04-25T06:02:32;8.30;;;5.23;;
177;SDS011;77;48.792;9.032;2023-04-25T06:04:57;8.37;;;5.50;;
177;SDS011;77;48.792;9.032;2023-04-25T06:07:22;8.43;;;5.00;;
177;SDS011;77;48.792;9.032;2023-04-25T06:09:49;7.50;;;5.00;;
177;SDS011;77;48.792;9.032;2023-04-25T06:12:14;8.30;;;4.97;;
177;SDS011;77;48.792;9.032;2023-04-25T06:14:40;6.80;;;4.33;;
177;SDS011;77;48.792;9.032;2023-04-25T06:17:05;6.80;;;4.60;;
177;SDS011;77;48.792;9.032;2023-04-25T06:19:30;6.87;;;4.53;;
177;SDS011;77;48.792;9.032;2023-04-25T06:21:56;9.43;;;4.80;;
177;SDS011;77;48.792;9.032;2023-04-25T06:24:21;8.10;;;4.90;;
177;SDS011;77;48.792;9.032;2023-04-25T06:26:47;7.57;;;4.77;;
177;SDS011;77;48.792;9.032;2023-04-25T06:29:13;8.10;;;4.90;;
177;SDS011;77;48.792;9.032;2023-04-25T06:31:38;7.20;;;4.57;;
177;SDS011;77;48.792;9.032;2023-04-25T06:34:03;8.13;;;5.20;;
177;SDS011;77;48.792;9.032;2023-04-25T06:36:28;9.83;;;5.27;;
177;SDS011;77;48.792;9.032;2023-04-25T06:38:53;8.60;;;4.90;;
177;SDS011;77;48.792;9.032;2023-04-25T06:41:18;9.40;;;5.13;;
177;SDS011;77;48.792;9.032;2023-04-25T06:43:45;7.50;;;4.90;;
177;SDS011;77;48.792;9.032;2023-04-25T06:46:10;8.97;;;4.97;;
177;SDS011;77;48.792;9.032;2023-04-25T06:48:36;8.17;;;4.90;;
177;SDS011;77;48.792;9.032;2023-04-25T06:51:01;9.60;;;5.30;;
177;SDS011;77;48.792;9.032;2023-04-25T06:53:26;10.23;;;5.67;;
177;SDS011;77;48.792;9.032;2023-04-25T06:55:51;8.30;;;5.20;;
177;SDS011;77;48.792;9.032;2023-04-25T06:58:16;8.40;;;5.40;;
177;SDS011;77;48.792;9.032;2023-04-25T07:00:43;8.50;;;5.40;;
177;SDS011;77;48.792;9.032;2023-04-25T07:03:08;8.57;;;5.97;;
177;SDS011;77;48.792;9.032;2023-04-25T07:05:33;11.00;;;5.67;;
177;SDS011;77;48.792;9.032;2023-04-25T07:07:58;8.07;;;5.27;;
177;SDS011;77;48.792;9.032;2023-04-25T07:10:23;8.30;;;5.37;;
177;SDS011;77;48.792;9.032;2023-04-25T07:12:49;11.10;;;6.03;;
177;SDS011;77;48.792;9.032;2023-04-25T07:15:14;8.83;;;5.37;;
177;SDS011;77;48.792;9.032;2023-04-25T07:17:40;9.40;;;6.00;;
177;SDS011;77;48.792;9.032;2023-04-25T07:20:06;9.17;;;5.70;;
177;SDS011;77;48.792;9.032;2023-04-25T07:22:31;8.57;;;5.83;;
177;SDS011;77;48.792;9.032;2023-04-25T07:24:56;8.47;;;5.70;;
177;SDS011;77;48.792;9.032;2023-04-25T07:27:22;8.43;;;5.67;;
177;SDS011;77;48.792;9.032;2023-04-25T07:29:47;8.23;;;5.47;;
177;SDS011;77;48.792;9.032;2023-04-25T07:32:12;9.30;;;5.70;;
177;SDS011;77;48.792;9.032;2023-04-25T07:34:38;8.60;;;5.70;;
177;SDS011;77;48.792;9.032;2023-04-25T07:37:04;8.93;;;5.50;;
177;SDS011;77;48.792;9.032;2023-04-25T07:39:29;9.70;;;5.60;;
177;SDS011;77;48.792;9.032;2023-04-25T07:41:54;9.00;;;5.60;;
177;SDS011;77;48.792;9.032;2023-04-25T07:44:19;11.30;;;5.77;;
177;SDS011;77;48.792;9.032;2023-04-25T07:46:44;12.03;;;6.30;;
177;SDS011;77;48.792;9.032;2023-04-25T07:49:10;8.97;;;5.80;;
177;SDS011;77;48.792;9.032;2023-04-25T07:51:36;9.77;;;5.73;;
177;SDS011;77;48.792;9.032;2023-04-25T07:54:02;10.40;;;5.80;;
177;SDS011;77;48.792;9.032;2023-04-25T07:56:27;10.23;;;6.23;;
177;SDS011;77;48.792;9.032;2023-04-25T07:58:52;9.23;;;5.90;;
177;SDS011;77;48.792;9.032;2023-04-25T08:01:17;9.53;;;6.00;;
177;SDS011;77;48.792;9.032;2023-04-25T08:03:42;14.00;;;6.80;;
177;SDS011;77;48.792;9.032;2023-04-25T08:06:08;9.73;;;6.17;;
177;SDS011;77;48.792;9.032;2023-04-25T08:08:34;10.07;;;5.80;;
177;SDS011;77;48.792;9.032;2023-04-25T08:10:59;9.77;;;6.20;;
177;SDS011;77;48.792;9.032;2023-04-25T08:13:24;10.60;;;6.00;;
177;SDS011;77;48.792;9.032;2023-04-25T08:15:50;8.60;;;5.43;;
177;SDS011;77;48.792;9.032;2023-04-25T08:18:15;9.37;;;5.80;;
177;SDS011;77;48.792;9.032;2023-04-25T08:20:40;10.60;;;5.87;;
177;SDS011;77;48.792;9.032;2023-04-25T08:23:05;10.80;;;6.50;;
177;SDS011;77;48.792;9.032;2023-04-25T08:25:32;10.60;;;6.80;;
177;SDS011;77;48.792;9.032;2023-04-25T08:27:57;8.90;;;5.77;;
177;SDS011;77;48.792;9.032;2023-04-25T08:30:22;10.83;;;6.07;;
177;SDS011;77;48.792;9.032;2023-04-25T08:32:47;11.03;;;6.53;;
177;SDS011;77;48.792;9.032;2023-04-25T08:35:12;10.00;;;6.73;;
177;SDS011;77;48.792;9.032;2023-04-25T08:37:37;9.40;;;6.40;;
177;SDS011;77;48.792;9.032;2023-04-25T08:40:03;10.60;;;6.47;;
177;SDS011;77;48.792;9.032;2023-04-25T08:42:30;11.40;;;6.50;;
177;SDS011;77;48.792;9.032;2023-04-25T08:44:56;10.10;;;5.90;;
177;SDS011;77;48.792;9.032;2023-04-25T08:47:22;10.30;;;6.30;;
177;SDS011;77;48.792;9.032;2023-04-25T08:49:47;10.80;;;6.70;;
177;SDS011;77;48.792;9.032;2023-04-25T08:52:13;11.67;;;6.10;;
177;SDS011;77;48.792;9.032;2023-04-25T08:54:40;9.63;;;6.37;;
177;SDS011;77;48.792;9.032;2023-04-25T08:57:06;9.93;;;6.43;;
177;SDS011;77;48.792;9.032;2023-04-25T08:59:33;11.17;;;6.50;;
177;SDS011;77;48.792;9.032;2023-04-25T09:01:58;11.77;;;6.50;;
177;SDS011;77;48.792;9.032;2023-04-25T09:04:23;14.23;;;7.30;;
177;SDS011;77;48.792;9.032;2023-04-25T09:06:49;10.10;;;6.30;;
177;SDS011;77;48.792;9.032;2023-04-25T09:09:14;10.27;;;6.80;;
177;SDS011;77;48.792;9.032;2023-04-25T09:11:39;10.97;;;6.60;;
177;SDS011;77;48.792;9.032;2023-04-25T09:14:11;12.40;;;7.20;;
177;SDS011;77;48.792;9.032;2023-04-25T09:16:38;12.60;;;6.70;;
177;SDS011;77;48.792;9.032;2023-04-25T09:19:21;11.20;;;6.30;;
177;SDS011;77;48.792;9.032;2023-04-25T09:21:48;9.70;;;6.30;;
177;SDS011;77;48.792;9.032;2023-04-25T09:24:13;11.70;;;7.10;;
177;SDS011;77;48.792;9.032;2023-04-25T09:26:38;11.53;;;7.20;;
177;SDS011;77;48.792;9.032;2023-04-25T09:29:06;13.00;;;7.50;;
177;SDS011;77;48.792;9.032;2023-04-25T09:31:31;10.70;;;6.40;;
177;SDS011;77;48.792;9.032;2023-04-25T09:33:59;8.80;;;5.70;;
177;SDS011;77;48.792;9.032;2023-04-25T09:36:25;9.73;;;6.10;;
177;SDS011;77;48.792;9.032;2023-04-25T09:38:51;8.17;;;4.70;;
177;SDS011;77;48.792;9.032;2023-04-25T09:41:21;10.03;;;5.60;;
177;SDS011;77;48.792;9.032;2023-04-25T09:43:47;8.03;;;5.00;;
177;SDS011;77;48.792;9.032;2023-04-25T09:46:14;7.17;;;4.47;;
177;SDS011;77;48.792;9.032;2023-04-25T09:48:39;7.40;;;4.23;;
177;SDS011;77;48.792;9.032;2023-04-25T09:51:06;5.97;;;3.67;;
177;SDS011;77;48.792;9.032;2023-04-25T09:53:31;6.20;;;3.17;;
177;SDS011;77;48.792;9.032;2023-04-25T09:55:57;5.00;;;2.93;;
177;SDS011;77;48.792;9.032;2023-04-25T09:58:24;5.20;;;2.90;;
177;SDS011;77;48.792;9.032;2023-04-25T10:00:49;5.00;;;2.83;;
177;SDS011;77;48.792;9.032;2023-04-25T10:03:15;4.80;;;2.77;;
177;SDS011;77;48.792;9.032;2023-04-25T10:05:41;4.10;;;2.43;;
177;SDS011;77;48.792;9.032;2023-04-25T10:08:07;4.07;;;2.60;;
177;SDS011;77;48.792;9.032;2023-04-25T10:10:33;5.93;;;2.77;;
177;SDS011;77;48.792;9.032;2023-04-25T10:12:58;4.07;;;2.50;;
177;SDS011;77;48.792;9.032;2023-04-25T10:15:23;4.17;;;2.30;;
177;SDS011;77;48.792;9.032;2023-04-25T10:17:49;3.80;;;2.10;;
177;SDS011;77;48.792;9.032;2023-04-25T10:20:15;5.07;;;2.43;;
177;SDS011;77;48.792;9.032;2023-04-25T10:22:41;4.70;;;2.77;;
177;SDS011;77;48.792;9.032;2023-04-25T10:25:08;4.80;;;2.63;;
177;SDS011;77;48.792;9.032;2023-04-25T10:27:34;4.67;;;2.70;;
177;SDS011;77;48.792;9.032;2023-04-25T10:30:02;5.60;;;2.50;;
177;SDS011;77;48.792;9.032;2023-04-25T10:32:27;4.50;;;2.40;;
177;SDS011;77;48.792;9.032;2023-04-25T10:34:53;5.07;;;2.83;;
177;SDS011;77;48.792;9.032;2023-04-25T10:37:18;4.40;;;2.63;;
177;SDS011;77;48.792;9.032;2023-04-25T10:39:44;5.10;;;2.80;;
177;SDS011;77;48.792;9.032;2023-04-25T10:42:10;5.30;;;2.90;;
177;SDS011;77;48.792;9.032;2023-04-25T10:44:36;7.23;;;3.30;;
177;SDS011;77;48.792;9.032;2023-04-25T10:47:02;6.13;;;3.73;;
177;SDS011;77;48.792;9.032;2023-04-25T10:49:30;8.30;;;4.93;;
177;SDS011;77;48.792;9.032;2023-04-25T10:52:10;7.73;;;4.90;;
177;SDS011;77;48.792;9.032;2023-04-25T10:54:39;11.27;;;5.03;;
177;SDS011;77;48.792;9.032;2023-04-25T10:57:04;8.30;;;5.30;;
177;SDS011;77;48.792;9.032;2023-04-25T10:59:31;9.20;;;5.67;;
177;SDS011;77;48.792;9.032;2023-04-25T11:01:56;9.10;;;6.10;;
177;SDS011;77;48.792;9.032;2023-04-25T11:04:22;9.70;;;5.87;;
177;SDS011;77;48.792;9.032;2023-04-25T11:06:51;9.00;;;5.80;;
177;SDS011;77;48.792;9.032;2023-04-25T11:09:19;8.63;;;5.70;;
177;SDS011;77;48.792;9.032;2023-04-25T11:11:53;10.00;;;6.03;;
177;SDS011;77;48.792;9.032;2023-04-25T11:14:19;12.53;;;6.30;;
177;SDS011;77;48.792;9.032;2023-04-25T11:16:46;9.27;;;6.00;;
177;SDS011;77;48.792;9.032;2023-04-25T11:19:11;9.00;;;5.60;;
177;SDS011;77;48.792;9.032;2023-04-25T11:21:36;8.70;;;5.40;;
177;SDS011;77;48.792;9.032;2023-04-25T11:24:01;9.13;;;5.07;;
177;SDS011;77;48.792;9.032;2023-04-25T11:26:27;8.40;;;4.83;;
177;SDS011;77;48.792;9.032;2023-04-25T11:28:55;7.50;;;4.00;;
177;SDS011;77;48.792;9.032;2023-04-25T11:31:21;7.47;;;4.60;;
177;SDS011;77;48.792;9.032;2023-04-25T11:33:48;6.97;;;4.07;;
177;SDS011;77;48.792;9.032;2023-04-25T11:36:13;6.23;;;4.00;;
177;SDS011;77;48.792;9.032;2023-04-25T11:38:38;7.83;;;4.63;;
177;SDS011;77;48.792;9.032;2023-04-25T11:41:03;7.67;;;4.90;;
177;SDS011;77;48.792;9.032;2023-04-25T11:43:29;8.60;;;4.40;;
177;SDS011;77;48.792;9.032;2023-04-25T11:45:54;8.37;;;5.00;;
177;SDS011;77;48.792;9.032;2023-04-25T11:48:19;7.87;;;4.70;;
177;SDS011;77;48.792;9.032;2023-04-25T11:50:45;8.27;;;5.00;;
177;SDS011;77;48.792;9.032;2023-04-25T11:53:11;9.10;;;5.00;;
177;SDS011;77;48.792;9.032;2023-04-25T11:55:36;6.70;;;4.30;;
177;SDS011;77;48.792;9.032;2023-04-25T11:58:01;7.67;;;4.60;;
177;SDS011;77;48.792;9.032;2023-04-25T12:00:26;11.27;;;5.40;;
177;SDS011;77;48.792;9.032;2023-04-25T12:02:52;10.33;;;6.77;;
177;SDS011;77;48.792;9.032;2023-04-25T12:05:18;11.60;;;6.70;;
177;SDS011;77;48.792;9.032;2023-04-25T12:07:44;11.87;;;6.87;;
177;SDS011;77;48.792;9.032;2023-04-25T12:10:10;10.40;;;6.73;;
177;SDS011;77;48.792;9.032;2023-04-25T12:12:36;12.50;;;6.70;;
177;SDS011;77;48.792;9.032;2023-04-25T12:15:08;14.40;;;7.23;;
177;SDS011;77;48.792;9.032;2023-04-25T12:17:33;15.10;;;8.00;;
177;SDS011;77;48.792;9.032;2023-04-25T12:19:58;12.80;;;7.50;;
177;SDS011;77;48.792;9.032;2023-04-25T12:22:23;11.87;;;7.77;;
177;SDS011;77;48.792;9.032;2023-04-25T12:24:50;14.90;;;8.40;;
177;SDS011;77;48.792;9.032;2023-04-25T12:27:16;13.70;;;8.40;;
177;SDS011;77;48.792;9.032;2023-04-25T12:29:49;15.37;;;8.30;;
177;SDS011;77;48.792;9.032;2023-04-25T12:32:15;13.67;;;8.00;;
177;SDS011;77;48.792;9.032;2023-04-25T12:34:40;15.07;;;7.77;;
177;SDS011;77;48.792;9.032;2023-04-25T12:37:05;12.17;;;7.30;;
177;SDS011;77;48.792;9.032;2023-04-25T12:39:30;11.50;;;7.43;;
177;SDS011;77;48.792;9.032;2023-04-25T12:41:57;14.60;;;7.43;;
177;SDS011;77;48.792;9.032;2023-04-25T12:44:22;12.97;;;7.20;;
177;SDS011;77;48.792;9.032;2023-04-25T12:46:47;11.63;;;7.40;;
177;SDS011;77;48.792;9.032;2023-04-25T12:49:13;12.70;;;7.47;;
177;SDS011;77;48.792;9.032;2023-04-25T12:51:38;13.47;;;8.07;;
177;SDS011;77;48.792;9.032;2023-04-25T12:54:04;13.23;;;8.27;;
177;SDS011;77;48.792;9.032;2023-04-25T12:56:29;13.70;;;7.57;;
177;SDS011;77;48.792;9.032;2023-04-25T12:58:56;12.77;;;8.30;;
177;SDS011;77;48.792;9.032;2023-04-25T13:01:21;12.37;;;7.60;;
177;SDS011;77;48.792;9.032;2023-04-25T13:03:47;12.70;;;8.20;;
177;SDS011;77;48.792;9.032;2023-04-25T13:06:12;14.17;;;8.10;;
177;SDS011;77;48.792;9.032;2023-04-25T13:08:37;13.87;;;8.43;;
177;SDS011;77;48.792;9.032;2023-04-25T13:11:02;15.90;;;9.13;;
177;SDS011;77;48.792;9.032;2023-04-25T13:13:27;14.20;;;8.70;;
177;SDS011;77;48.792;9.032;2023-04-25T13:15:54;12.50;;;9.00;;
177;SDS011;77;48.792;9.032;2023-04-25T13:18:19;13.63;;;8.83;;
177;SDS011;77;48.792;9.032;2023-04-25T13:20:44;17.37;;;9.60;;
177;SDS011;77;48.792;9.032;2023-04-25T13:23:10;17.80;;;10.10;;
177;SDS011;77;48.792;9.032;2023-04-25T13:25:35;15.43;;;9.90;;
177;SDS011;77;48.792;9.032;2023-04-25T13:28:00;15.20;;;8.90;;
177;SDS011;77;48.792;9.032;2023-04-25T13:30:25;13.97;;;9.30;;
177;SDS011;77;48.792;9.032;2023-04-25T13:32:52;12.23;;;8.37;;
177;SDS011;77;48.792;9.032;2023-04-25T13:35:17;13.40;;;8.40;;
177;SDS011;77;48.792;9.032;2023-04-25T13:37:42;13.43;;;8.97;;
177;SDS011;77;48.792;9.032;2023-04-25T13:40:08;16.63;;;10.23;;
177;SDS011;77;48.792;9.032;2023-04-25T13:42:34;15.33;;;9.93;;
177;SDS011;77;48.792;9.032;2023-04-25T13:44:59;15.97;;;9.70;;
177;SDS011;77;48.792;9.032;2023-04-25T13:47:25;15.97;;;9.60;;
177;SDS011;77;48.792;9.032;2023-04-25T13:49:52;15.50;;;9.37;;
177;SDS011;77;48.792;9.032;2023-04-25T13:52:17;15.57;;;9.90;;
177;SDS011;77;48.792;9.032;2023-04-25T13:54:42;14.77;;;8.47;;
177;SDS011;77;48.792;9.032;2023-04-25T13:57:07;11.43;;;8.20;;
177;SDS011;77;48.792;9.032;2023-04-25T13:59:32;12.80;;;8.60;;
177;SDS011;77;48.792;9.032;2023-04-25T14:01:58;11.07;;;7.80;;
177;SDS011;77;48.792;9.032;2023-04-25T14:04:23;12.47;;;7.93;;
177;SDS011;77;48.792;9.032;2023-04-25T14:06:50;14.03;;;9.00;;
177;SDS011;77;48.792;9.032;2023-04-25T14:09:15;13.00;;;7.97;;
177;SDS011;77;48.792;9.032;2023-04-25T14:11:40;11.37;;;7.80;;
177;SDS011;77;48.792;9.032;2023-04-25T14:14:05;11.97;;;7.97;;
177;SDS011;77;48.792;9.032;2023-04-25T14:16:30;11.07;;;7.60;;
177;SDS011;77;48.792;9.032;2023-04-25T14:18:56;12.63;;;7.10;;
177;SDS011;77;48.792;9.032;2023-04-25T14:21:21;13.00;;;7.80;;
177;SDS011;77;48.792;9.032;2023-04-25T14:23:47;12.37;;;8.00;;
177;SDS011;77;48.792;9.032;2023-04-25T14:26:12;12.73;;;9.20;;
177;SDS011;77;48.792;9.032;2023-04-25T14:28:38;13.23;;;7.83;;
177;SDS011;77;48.792;9.032;2023-04-25T14:31:03;11.63;;;7.47;;
177;SDS011;77;48.792;9.032;2023-04-25T14:33:28;14.00;;;7.93;;
177;SDS011;77;48.792;9.032;2023-04-25T14:35:53;13.03;;;8.10;;
177;SDS011;77;48.792;9.032;2023-04-25T14:38:18;12.40;;;7.90;;
177;SDS011;77;48.792;9.032;2023-04-25T14:40:45;12.60;;;7.87;;
177;SDS011;77;48.792;9.032;2023-04-25T14:43:10;10.27;;;7.17;;
177;SDS011;77;48.792;9.032;2023-04-25T14:45:35;12.60;;;8.00;;
177;SDS011;77;48.792;9.032;2023-04-25T14:48:00;11.27;;;7.20;;
177;SDS011;77;48.792;9.032;2023-04-25T14:50:26;12.00;;;7.23;;
177;SDS011;77;48.792;9.032;2023-04-25T14:52:51;10.40;;;6.90;;
177;SDS011;77;48.792;9.032;2023-04-25T14:55:16;11.90;;;7.10;;
177;SDS011;77;48.792;9.032;2023-04-25T14:57:42;10.23;;;6.70;;
177;SDS011;77;48.792;9.032;2023-04-25T15:00:08;8.90;;;6.37;;
177;SDS011;77;48.792;9.032;2023-04-25T15:02:33;11.27;;;7.20;;
177;SDS011;77;48.792;9.032;2023-04-25T15:04:59;12.37;;;7.20;;
177;SDS011;77;48.792;9.032;2023-04-25T15:07:24;9.53;;;6.80;;
177;SDS011;77;48.792;9.032;2023-04-25T15:09:49;9.90;;;6.43;;
177;SDS011;77;48.792;9.032;2023-04-25T15:12:14;9.83;;;6.67;;
177;SDS011;77;48.792;9.032;2023-04-25T15:14:41;8.90;;;6.37;;
177;SDS011;77;48.792;9.032;2023-04-25T15:17:06;9.20;;;6.80;;
177;SDS011;77;48.792;9.032;2023-04-25T15:19:31;9.67;;;6.60;;
177;SDS011;77;48.792;9.032;2023-04-25T15:21:56;10.23;;;6.47;;
177;SDS011;77;48.792;9.032;2023-04-25T15:24:21;9.00;;;6.40;;
177;SDS011;77;48.792;9.032;2023-04-25T15:26:47;12.30;;;6.90;;
177;SDS011;77;48.792;9.032;2023-04-25T15:29:12;9.33;;;6.50;;
177;SDS011;77;48.792;9.032;2023-04-25T15:31:38;9.53;;;6.43;;
177;SDS011;77;48.792;9.032;2023-04-25T15:34:03;10.40;;;7.03;;
177;SDS011;77;48.792;9.032;2023-04-25T15:36:29;9.07;;;6.47;;
177;SDS011;77;48.792;9.032;2023-04-25T15:38:54;9.03;;;6.43;;
177;SDS011;77;48.792;9.032;2023-04-25T15:41:19;10.60;;;6.70;;
177;SDS011;77;48.792;9.032;2023-04-25T15:43:45;9.20;;;6.20;;